createdAt,value
2023-05-21T00:00:12.073Z,51.20
2023-05-21T00:01:18.889Z,51.20
2023-05-21T00:02:22.310Z,51.20
2023-05-21T00:03:27.178Z,51.20
2023-05-21T00:04:32.790Z,51.20
2023-05-21T00:05:35.907Z,51.20
2023-05-21T00:06:39.732Z,51.20
2023-05-21T00:07:43.124Z,51.20
2023-05-21T00:08:45.540Z,51.20
2023-05-21T00:09:49.337Z,51.20
2023-05-21T00:10:51.623Z,51.20
2023-05-21T00:11:57.296Z,51.20
2023-05-21T00:13:00.656Z,51.20
2023-05-21T00:14:03.044Z,51.20
2023-05-21T00:15:05.567Z,51.20
2023-05-21T00:16:11.230Z,51.20
2023-05-21T00:17:17.330Z,51.20
2023-05-21T00:18:20.135Z,51.20
2023-05-21T00:19:22.598Z,51.20
2023-05-21T00:20:25.525Z,51.20
2023-05-21T00:21:27.804Z,51.20
2023-05-21T00:22:35.277Z,51.20
2023-05-21T00:23:39.751Z,51.20
2023-05-21T00:24:47.336Z,51.20
2023-05-21T00:25:54.895Z,51.20
2023-05-21T00:27:00.366Z,51.20
2023-05-21T00:28:03.561Z,51.20
2023-05-21T00:29:06.173Z,51.20
2023-05-21T00:30:08.731Z,51.20
2023-05-21T00:31:11.133Z,51.20
2023-05-21T00:32:16.958Z,51.20
2023-05-21T00:33:22.590Z,51.20
2023-05-21T00:34:25.550Z,51.30
2023-05-21T00:35:28.025Z,51.30
2023-05-21T00:36:31.291Z,51.20
2023-05-21T00:37:34.461Z,51.30
2023-05-21T00:38:38.110Z,51.30
2023-05-21T00:39:43.209Z,51.30
2023-05-21T00:40:50.248Z,51.30
2023-05-21T00:41:54.105Z,51.30
2023-05-21T00:42:58.084Z,51.30
2023-05-21T00:44:03.582Z,51.30
2023-05-21T00:45:07.045Z,51.30
2023-05-21T00:46:13.660Z,51.30
2023-05-21T00:47:18.383Z,51.40
2023-05-21T00:48:25.416Z,51.30
2023-05-21T00:49:30.669Z,51.30
2023-05-21T00:50:33.393Z,51.30
2023-05-21T00:51:35.946Z,51.90
2023-05-21T00:52:41.663Z,51.90
2023-05-21T00:53:44.891Z,51.30
2023-05-21T00:54:49.867Z,51.30
2023-05-21T00:55:53.237Z,51.30
2023-05-21T00:56:56.306Z,51.30
2023-05-21T00:57:59.163Z,51.30
2023-05-21T00:59:05.543Z,51.90
2023-05-21T01:00:09.589Z,51.30
2023-05-21T01:01:20.864Z,51.30
2023-05-21T01:02:24.414Z,51.40
2023-05-21T01:03:30.690Z,51.30
2023-05-21T01:04:33.424Z,51.30
2023-05-21T01:05:38.375Z,51.30
2023-05-21T01:06:42.660Z,51.30
2023-05-21T01:07:45.246Z,51.30
2023-05-21T01:08:54.494Z,51.40
2023-05-21T01:09:57.064Z,51.30
2023-05-21T01:10:59.663Z,51.40
2023-05-21T01:12:03.423Z,51.40
2023-05-21T01:13:07.705Z,51.40
2023-05-21T01:14:12.756Z,51.40
2023-05-21T01:15:16.429Z,51.30
2023-05-21T01:16:19.645Z,51.40
2023-05-21T01:17:24.479Z,51.40
2023-05-21T01:18:27.672Z,51.40
2023-05-21T01:19:30.150Z,51.40
2023-05-21T01:20:35.668Z,51.40
2023-05-21T01:21:47.561Z,51.40
2023-05-21T01:22:54.927Z,51.30
2023-05-21T01:24:07.959Z,51.40
2023-05-21T01:25:13.376Z,51.40
2023-05-21T01:26:16.111Z,51.40
2023-05-21T01:27:18.597Z,51.40
2023-05-21T01:28:20.927Z,51.40
2023-05-21T01:29:24.599Z,51.40
2023-05-21T01:30:29.435Z,51.40
2023-05-21T01:31:37.627Z,51.40
2023-05-21T01:32:59.343Z,51.40
2023-05-21T01:34:05.681Z,51.40
2023-05-21T01:35:15.508Z,51.40
2023-05-21T01:36:29.359Z,51.40
2023-05-21T01:37:36.666Z,51.40
2023-05-21T01:38:43.852Z,51.40
2023-05-21T01:39:48.712Z,51.40
2023-05-21T01:40:58.794Z,51.40
2023-05-21T01:42:03.149Z,51.50
2023-05-21T01:43:07.127Z,51.50
2023-05-21T01:44:10.028Z,51.40
2023-05-21T01:45:14.346Z,51.40
2023-05-21T01:46:21.280Z,51.50
2023-05-21T01:47:25.054Z,51.40
2023-05-21T01:48:29.900Z,51.50
2023-05-21T01:49:34.972Z,51.50
2023-05-21T01:50:43.600Z,51.50
2023-05-21T01:51:51.724Z,51.50
2023-05-21T01:53:03.959Z,51.50
2023-05-21T01:54:07.722Z,51.50
2023-05-21T01:55:10.199Z,51.40
2023-05-21T01:56:13.599Z,51.50
2023-05-21T01:57:17.033Z,51.50
2023-05-21T01:58:21.547Z,51.40
2023-05-21T01:59:23.899Z,51.50
2023-05-21T02:00:32.649Z,51.50
2023-05-21T02:01:35.930Z,51.40
2023-05-21T02:02:38.772Z,51.50
2023-05-21T02:03:41.900Z,51.50
2023-05-21T02:04:47.241Z,51.50
2023-05-21T02:05:51.990Z,51.50
2023-05-21T02:06:54.952Z,51.50
2023-05-21T02:08:00.060Z,51.50
2023-05-21T02:09:06.545Z,51.50
2023-05-21T02:10:09.703Z,51.50
2023-05-21T02:11:12.592Z,51.50
2023-05-21T02:12:15.630Z,51.50
2023-05-21T02:13:21.476Z,51.50
2023-05-21T02:14:30.800Z,51.50
2023-05-21T02:15:35.088Z,51.50
2023-05-21T02:16:40.654Z,51.50
2023-05-21T02:17:46.760Z,51.50
2023-05-21T02:18:54.442Z,51.50
2023-05-21T02:19:58.889Z,51.50
2023-05-21T02:21:01.176Z,51.50
2023-05-21T02:22:05.935Z,51.50
2023-05-21T02:23:11.240Z,51.50
2023-05-21T02:24:14.251Z,51.50
2023-05-21T02:25:18.328Z,51.50
2023-05-21T02:26:22.691Z,51.50
2023-05-21T02:27:31.825Z,51.50
2023-05-21T02:28:34.786Z,51.30
2023-05-21T02:29:37.129Z,51.50
2023-05-21T02:30:40.172Z,51.50
2023-05-21T02:31:43.351Z,51.50
2023-05-21T02:32:49.000Z,51.50
2023-05-21T02:33:53.622Z,51.50
2023-05-21T02:34:58.517Z,51.50
2023-05-21T02:36:14.181Z,51.50
2023-05-21T02:37:17.537Z,51.50
2023-05-21T02:38:23.037Z,51.50
2023-05-21T02:39:28.346Z,51.50
2023-05-21T02:40:33.208Z,51.50
2023-05-21T02:41:38.254Z,51.60
2023-05-21T02:42:43.654Z,51.50
2023-05-21T02:43:50.538Z,51.50
2023-05-21T02:44:59.002Z,51.50
2023-05-21T02:46:01.586Z,51.50
2023-05-21T02:47:08.824Z,51.50
2023-05-21T02:48:13.392Z,51.50
2023-05-21T02:49:18.525Z,51.50
2023-05-21T02:50:23.751Z,51.50
2023-05-21T02:51:35.510Z,51.50
2023-05-21T02:52:38.329Z,51.50
2023-05-21T02:53:41.701Z,51.50
2023-05-21T02:54:44.709Z,51.50
2023-05-21T02:55:47.728Z,51.50
2023-05-21T02:56:52.828Z,51.50
2023-05-21T02:57:56.337Z,51.60
2023-05-21T02:59:01.832Z,51.50
2023-05-21T03:00:05.982Z,51.60
2023-05-21T03:01:09.910Z,51.60
2023-05-21T03:02:13.694Z,51.50
2023-05-21T03:03:21.041Z,51.50
2023-05-21T03:04:23.804Z,51.60
2023-05-21T03:05:26.440Z,51.60
2023-05-21T03:06:34.604Z,51.60
2023-05-21T03:07:39.563Z,51.60
2023-05-21T03:08:42.147Z,51.50
2023-05-21T03:09:46.551Z,51.60
2023-05-21T03:10:49.712Z,51.60
2023-05-21T03:11:54.660Z,51.60
2023-05-21T03:12:57.020Z,51.60
2023-05-21T03:13:59.719Z,51.60
2023-05-21T03:15:02.173Z,51.60
2023-05-21T03:16:05.865Z,51.60
2023-05-21T03:17:08.468Z,51.50
2023-05-21T03:18:12.184Z,51.60
2023-05-21T03:19:15.503Z,51.60
2023-05-21T03:20:18.959Z,51.60
2023-05-21T03:21:22.878Z,51.60
2023-05-21T03:22:25.839Z,51.60
2023-05-21T03:23:28.662Z,51.60
2023-05-21T03:24:33.105Z,51.60
2023-05-21T03:25:37.691Z,51.60
2023-05-21T03:26:40.751Z,51.60
2023-05-21T03:27:43.836Z,51.60
2023-05-21T03:29:19.458Z,51.60
2023-05-21T03:30:22.817Z,52.10
2023-05-21T03:31:58.746Z,51.60
2023-05-21T03:33:03.490Z,51.60
2023-05-21T03:34:06.066Z,51.60
2023-05-21T03:35:09.255Z,51.60
2023-05-21T03:36:11.762Z,51.60
2023-05-21T03:37:14.293Z,51.60
2023-05-21T03:38:19.818Z,51.60
2023-05-21T03:39:22.768Z,51.60
2023-05-21T03:40:26.338Z,51.60
2023-05-21T03:41:30.546Z,51.60
2023-05-21T03:42:40.536Z,51.60
2023-05-21T03:43:45.652Z,51.50
2023-05-21T03:44:49.109Z,51.60
2023-05-21T03:46:13.018Z,51.60
2023-05-21T03:47:36.005Z,51.60
2023-05-21T03:48:40.591Z,51.60
2023-05-21T03:49:47.088Z,51.60
2023-05-21T03:50:51.548Z,51.60
2023-05-21T03:51:54.312Z,51.60
2023-05-21T03:53:00.037Z,51.60
2023-05-21T03:54:05.754Z,51.60
2023-05-21T03:55:09.489Z,51.60
2023-05-21T03:56:12.303Z,51.60
2023-05-21T03:57:16.013Z,51.50
2023-05-21T03:58:19.805Z,51.60
2023-05-21T03:59:26.383Z,51.50
2023-05-21T04:00:29.641Z,51.60
2023-05-21T04:01:38.596Z,51.60
2023-05-21T04:02:42.265Z,51.60
2023-05-21T04:03:47.949Z,51.60
2023-05-21T04:04:53.514Z,51.60
2023-05-21T04:05:56.539Z,51.50
2023-05-21T04:06:59.711Z,51.50
2023-05-21T04:08:04.651Z,51.60
2023-05-21T04:09:07.113Z,51.50
2023-05-21T04:10:10.653Z,51.50
2023-05-21T04:11:16.885Z,51.60
2023-05-21T04:12:20.650Z,51.50
2023-05-21T04:13:24.363Z,51.60
2023-05-21T04:14:26.689Z,51.60
2023-05-21T04:15:29.366Z,51.50
2023-05-21T04:16:34.728Z,51.50
2023-05-21T04:17:37.789Z,51.50
2023-05-21T04:18:45.700Z,51.50
2023-05-21T04:19:49.118Z,51.50
2023-05-21T04:20:51.681Z,51.50
2023-05-21T04:21:54.353Z,51.50
2023-05-21T04:22:58.183Z,51.50
2023-05-21T04:24:00.896Z,51.50
2023-05-21T04:25:18.288Z,51.50
2023-05-21T04:26:20.665Z,51.50
2023-05-21T04:27:26.041Z,51.50
2023-05-21T04:28:30.471Z,51.50
2023-05-21T04:29:33.437Z,51.50
2023-05-21T04:30:39.135Z,51.50
2023-05-21T04:31:42.036Z,51.50
2023-05-21T04:32:45.916Z,51.50
2023-05-21T04:33:48.592Z,51.50
2023-05-21T04:34:51.084Z,51.50
2023-05-21T04:35:54.639Z,51.50
2023-05-21T04:36:57.006Z,51.50
2023-05-21T04:38:02.272Z,51.50
2023-05-21T04:39:07.311Z,51.50
2023-05-21T04:40:21.236Z,51.40
2023-05-21T04:41:24.935Z,51.40
2023-05-21T04:42:27.637Z,51.40
2023-05-21T04:43:32.033Z,51.50
2023-05-21T04:44:41.474Z,51.40
2023-05-21T04:45:45.296Z,51.50
2023-05-21T04:46:49.355Z,51.40
2023-05-21T04:47:53.690Z,51.40
2023-05-21T04:49:03.023Z,51.40
2023-05-21T04:50:06.866Z,51.40
2023-05-21T04:51:09.433Z,51.40
2023-05-21T04:52:11.732Z,51.40
2023-05-21T04:53:14.179Z,51.30
2023-05-21T04:54:16.474Z,51.50
2023-05-21T04:55:19.566Z,51.40
2023-05-21T04:56:22.735Z,51.40
2023-05-21T04:57:28.275Z,51.40
2023-05-21T04:58:41.668Z,51.40
2023-05-21T04:59:47.891Z,51.30
2023-05-21T05:00:51.997Z,51.40
2023-05-21T05:01:55.836Z,51.30
2023-05-21T05:02:59.066Z,51.30
2023-05-21T05:04:02.447Z,51.30
2023-05-21T05:05:05.925Z,51.40
2023-05-21T05:06:09.581Z,51.30
2023-05-21T05:07:15.259Z,51.30
2023-05-21T05:08:17.916Z,51.30
2023-05-21T05:09:25.312Z,51.30
2023-05-21T05:10:29.566Z,51.30
2023-05-21T05:11:31.897Z,51.30
2023-05-21T05:12:34.605Z,51.30
2023-05-21T05:13:36.893Z,51.30
2023-05-21T05:14:39.170Z,51.30
2023-05-21T05:15:41.982Z,51.30
2023-05-21T05:16:44.557Z,51.30
2023-05-21T05:17:51.541Z,51.30
2023-05-21T05:18:54.144Z,51.30
2023-05-21T05:20:00.292Z,51.30
2023-05-21T05:21:02.813Z,51.30
2023-05-21T05:22:05.241Z,51.30
2023-05-21T05:23:08.312Z,51.30
2023-05-21T05:24:10.780Z,51.30
2023-05-21T05:25:13.132Z,51.30
2023-05-21T05:26:16.033Z,51.30
2023-05-21T05:27:21.148Z,51.30
2023-05-21T05:28:25.714Z,51.30
2023-05-21T05:29:28.231Z,51.30
2023-05-21T05:30:30.571Z,51.30
2023-05-21T05:31:41.924Z,51.30
2023-05-21T05:32:51.628Z,51.30
2023-05-21T05:33:56.663Z,51.30
2023-05-21T05:35:05.543Z,51.30
2023-05-21T05:36:09.802Z,51.30
2023-05-21T05:37:12.620Z,51.20
2023-05-21T05:38:15.025Z,51.30
2023-05-21T05:39:19.849Z,51.30
2023-05-21T05:40:24.199Z,51.30
2023-05-21T05:41:29.033Z,51.20
2023-05-21T05:42:32.181Z,51.30
2023-05-21T05:43:37.700Z,51.20
2023-05-21T05:44:40.811Z,51.20
2023-05-21T05:45:44.054Z,51.20
2023-05-21T05:46:49.643Z,51.20
2023-05-21T05:47:53.887Z,51.20
2023-05-21T05:48:56.815Z,51.30
2023-05-21T05:50:02.437Z,51.30
2023-05-21T05:51:04.920Z,51.30
2023-05-21T05:52:08.756Z,51.20
2023-05-21T05:53:14.726Z,51.30
2023-05-21T05:54:19.447Z,51.20
2023-05-21T05:55:22.129Z,51.30
2023-05-21T05:56:27.010Z,51.30
2023-05-21T05:57:30.203Z,51.20
2023-05-21T05:58:36.879Z,51.20
2023-05-21T05:59:49.867Z,51.20
2023-05-21T06:00:54.607Z,51.30
2023-05-21T06:01:56.944Z,51.30
2023-05-21T06:03:02.768Z,51.30
2023-05-21T06:04:06.459Z,51.30
2023-05-21T06:05:13.344Z,51.20
2023-05-21T06:06:17.769Z,51.20
2023-05-21T06:07:22.942Z,51.30
2023-05-21T06:08:28.737Z,51.30
2023-05-21T06:09:31.432Z,51.30
2023-05-21T06:10:33.775Z,51.30
2023-05-21T06:11:39.133Z,51.30
2023-05-21T06:12:41.493Z,51.30
2023-05-21T06:13:45.752Z,51.30
2023-05-21T06:14:49.150Z,51.30
2023-05-21T06:15:53.057Z,51.30
2023-05-21T06:16:55.379Z,51.30
2023-05-21T06:18:01.773Z,51.30
2023-05-21T06:19:04.658Z,51.30
2023-05-21T06:20:10.054Z,51.30
2023-05-21T06:21:12.886Z,51.30
2023-05-21T06:22:16.624Z,51.30
2023-05-21T06:23:19.329Z,51.30
2023-05-21T06:24:22.105Z,51.30
2023-05-21T06:25:25.786Z,51.30
2023-05-21T06:26:28.988Z,51.30
2023-05-21T06:27:36.404Z,51.30
2023-05-21T06:28:40.888Z,51.30
2023-05-21T06:29:45.909Z,51.30
2023-05-21T06:30:48.859Z,51.30
2023-05-21T06:31:51.746Z,51.30
2023-05-21T06:32:54.859Z,51.30
2023-05-21T06:33:58.091Z,51.30
2023-05-21T06:35:01.639Z,51.30
2023-05-21T06:36:04.757Z,51.30
2023-05-21T06:37:11.062Z,51.30
2023-05-21T06:38:14.685Z,51.30
2023-05-21T06:39:19.996Z,51.30
2023-05-21T06:40:23.752Z,51.30
2023-05-21T06:41:30.649Z,51.30
2023-05-21T06:42:41.691Z,51.30
2023-05-21T06:44:07.083Z,51.30
2023-05-21T06:45:38.986Z,51.30
2023-05-21T06:46:58.872Z,51.30
2023-05-21T06:48:01.361Z,51.30
2023-05-21T06:49:07.990Z,51.40
2023-05-21T06:50:11.129Z,51.40
2023-05-21T06:51:19.669Z,51.40
2023-05-21T06:52:28.945Z,51.40
2023-05-21T06:53:35.297Z,51.30
2023-05-21T06:54:40.935Z,51.30
2023-05-21T06:55:46.503Z,51.30
2023-05-21T06:57:05.064Z,51.40
2023-05-21T06:58:13.648Z,51.40
2023-05-21T06:59:17.659Z,52.00
2023-05-21T07:00:20.731Z,51.40
2023-05-21T07:01:25.975Z,51.40
2023-05-21T07:02:29.537Z,52.00
2023-05-21T07:03:32.872Z,51.40
2023-05-21T07:04:36.777Z,51.40
2023-05-21T07:05:40.066Z,51.40
2023-05-21T07:06:42.897Z,51.40
2023-05-21T07:07:45.841Z,51.30
2023-05-21T07:08:52.501Z,51.40
2023-05-21T07:09:55.678Z,51.40
2023-05-21T07:10:59.505Z,51.40
2023-05-21T07:12:02.245Z,51.40
2023-05-21T07:13:07.071Z,51.40
2023-05-21T07:14:09.688Z,51.40
2023-05-21T07:15:13.756Z,51.30
2023-05-21T07:16:17.941Z,51.40
2023-05-21T07:17:22.232Z,51.50
2023-05-21T07:18:24.710Z,51.40
2023-05-21T07:19:28.849Z,51.40
2023-05-21T07:20:31.716Z,51.40
2023-05-21T07:21:40.612Z,51.30
2023-05-21T07:22:44.221Z,52.00
2023-05-21T07:23:48.734Z,51.40
2023-05-21T07:24:51.806Z,51.40
2023-05-21T07:25:55.598Z,51.40
2023-05-21T07:27:00.271Z,51.50
2023-05-21T07:28:04.602Z,51.40
2023-05-21T07:29:11.028Z,51.50
2023-05-21T07:30:16.837Z,51.40
2023-05-21T07:31:19.221Z,51.40
2023-05-21T07:32:28.657Z,51.50
2023-05-21T07:33:35.375Z,51.40
2023-05-21T07:34:37.711Z,51.40
2023-05-21T07:35:40.932Z,51.40
2023-05-21T07:36:43.361Z,51.50
2023-05-21T07:37:46.674Z,51.50
2023-05-21T07:38:53.649Z,51.40
2023-05-21T07:39:58.912Z,51.40
2023-05-21T07:41:18.858Z,51.50
2023-05-21T07:42:22.664Z,51.50
2023-05-21T07:43:27.635Z,51.50
2023-05-21T07:44:30.577Z,51.50
2023-05-21T07:45:34.750Z,52.10
2023-05-21T07:46:37.446Z,51.50
2023-05-21T07:47:43.164Z,51.50
2023-05-21T07:48:50.552Z,51.50
2023-05-21T07:49:56.156Z,51.40
2023-05-21T07:50:59.304Z,51.50
2023-05-21T07:52:02.721Z,51.50
2023-05-21T07:53:10.642Z,51.50
2023-05-21T07:54:20.113Z,51.50
2023-05-21T07:55:27.652Z,51.50
2023-05-21T07:56:30.440Z,51.50
2023-05-21T07:57:32.782Z,51.50
2023-05-21T07:58:38.069Z,51.50
2023-05-21T07:59:44.956Z,51.60
2023-05-21T08:00:47.828Z,51.50
2023-05-21T08:01:56.846Z,51.50
2023-05-21T08:03:03.510Z,51.60
2023-05-21T08:04:08.075Z,51.60
2023-05-21T08:05:12.001Z,51.60
2023-05-21T08:06:19.761Z,51.60
2023-05-21T08:07:27.427Z,51.60
2023-05-21T08:08:30.076Z,51.60
2023-05-21T08:09:36.865Z,51.60
2023-05-21T08:10:42.821Z,51.60
2023-05-21T08:11:45.708Z,51.60
2023-05-21T08:12:48.080Z,51.60
2023-05-21T08:13:50.680Z,51.60
2023-05-21T08:14:53.335Z,51.60
2023-05-21T08:15:55.844Z,51.60
2023-05-21T08:16:59.500Z,51.60
2023-05-21T08:18:01.896Z,51.60
2023-05-21T08:19:04.971Z,51.60
2023-05-21T08:20:08.230Z,51.70
2023-05-21T08:21:12.728Z,51.60
2023-05-21T08:22:15.632Z,51.70
2023-05-21T08:23:23.799Z,51.70
2023-05-21T08:24:30.052Z,51.70
2023-05-21T08:25:34.230Z,51.70
2023-05-21T08:26:38.299Z,51.60
2023-05-21T08:27:42.774Z,51.70
2023-05-21T08:28:45.778Z,51.70
2023-05-21T08:29:49.166Z,51.70
2023-05-21T08:30:54.871Z,51.70
2023-05-21T08:31:58.997Z,51.70
2023-05-21T08:33:04.257Z,51.70
2023-05-21T08:34:09.077Z,51.70
2023-05-21T08:35:21.347Z,51.70
2023-05-21T08:36:56.849Z,51.70
2023-05-21T08:38:24.542Z,51.80
2023-05-21T08:39:43.829Z,51.70
2023-05-21T08:40:49.940Z,51.80
2023-05-21T08:41:53.936Z,51.70
2023-05-21T08:42:56.470Z,51.70
2023-05-21T08:44:14.586Z,51.70
2023-05-21T08:45:25.533Z,51.80
2023-05-21T08:46:35.525Z,51.70
2023-05-21T08:47:46.630Z,51.80
2023-05-21T08:48:55.257Z,51.80
2023-05-21T08:50:01.095Z,51.80
2023-05-21T08:51:05.190Z,51.80
2023-05-21T08:52:13.594Z,51.80
2023-05-21T08:53:27.191Z,51.80
2023-05-21T08:54:32.714Z,51.80
2023-05-21T08:55:51.797Z,51.80
2023-05-21T08:56:56.508Z,51.80
2023-05-21T08:58:01.390Z,51.80
2023-05-21T08:59:06.499Z,51.90
2023-05-21T09:00:12.921Z,51.90
2023-05-21T09:01:19.628Z,51.80
2023-05-21T09:02:34.899Z,51.80
2023-05-21T09:03:41.171Z,51.80
2023-05-21T09:04:50.901Z,51.90
2023-05-21T09:05:53.787Z,51.90
2023-05-21T09:06:58.014Z,52.00
2023-05-21T09:08:49.078Z,51.90
2023-05-21T09:10:13.076Z,52.00
2023-05-21T09:11:17.686Z,52.00
2023-05-21T09:12:36.691Z,52.00
2023-05-21T09:13:42.577Z,51.90
2023-05-21T09:14:52.342Z,52.00
2023-05-21T09:16:01.560Z,51.90
2023-05-21T09:17:05.752Z,52.00
2023-05-21T09:18:12.719Z,52.00
2023-05-21T09:19:26.354Z,52.00
2023-05-21T09:20:29.837Z,51.90
2023-05-21T09:21:36.223Z,52.10
2023-05-21T09:22:49.365Z,52.00
2023-05-21T09:23:58.957Z,52.00
2023-05-21T09:25:04.591Z,52.00
2023-05-21T09:26:10.773Z,52.10
2023-05-21T09:27:21.465Z,52.10
2023-05-21T09:28:26.793Z,52.10
2023-05-21T09:29:29.795Z,52.10
2023-05-21T09:30:35.913Z,52.10
2023-05-21T09:31:48.166Z,52.10
2023-05-21T09:32:56.579Z,52.10
2023-05-21T09:33:59.012Z,52.10
2023-05-21T09:35:09.654Z,52.10
2023-05-21T09:36:12.749Z,52.10
2023-05-21T09:37:27.071Z,52.10
2023-05-21T09:38:36.407Z,52.10
2023-05-21T09:39:40.057Z,52.10
2023-05-21T09:40:49.689Z,52.10
2023-05-21T09:41:53.492Z,52.10
2023-05-21T09:42:58.997Z,52.10
2023-05-21T09:44:04.737Z,52.10
2023-05-21T09:45:10.813Z,52.20
2023-05-21T09:46:13.220Z,52.10
2023-05-21T09:47:23.829Z,52.20
2023-05-21T09:48:36.482Z,52.20
2023-05-21T09:49:44.980Z,52.20
2023-05-21T09:50:47.305Z,52.20
2023-05-21T09:51:49.837Z,52.20
2023-05-21T09:52:55.686Z,52.20
2023-05-21T09:54:02.968Z,52.30
2023-05-21T09:55:14.866Z,52.20
2023-05-21T09:56:21.984Z,52.30
2023-05-21T09:57:25.812Z,52.30
2023-05-21T09:58:33.748Z,52.20
2023-05-21T09:59:39.366Z,52.30
2023-05-21T10:00:44.516Z,52.30
2023-05-21T10:01:55.522Z,52.30
2023-05-21T10:03:01.002Z,52.30
2023-05-21T10:04:07.185Z,52.30
2023-05-21T10:05:10.693Z,52.30
2023-05-21T10:06:16.133Z,52.30
2023-05-21T10:07:24.732Z,52.40
2023-05-21T10:08:31.597Z,52.30
2023-05-21T10:09:42.788Z,52.40
2023-05-21T10:10:46.529Z,52.40
2023-05-21T10:11:52.025Z,52.40
2023-05-21T10:13:04.662Z,52.40
2023-05-21T10:14:13.379Z,52.40
2023-05-21T10:15:20.075Z,52.40
2023-05-21T10:16:26.766Z,52.40
2023-05-21T10:17:32.531Z,52.40
2023-05-21T10:18:35.305Z,52.30
2023-05-21T10:19:38.813Z,52.30
2023-05-21T10:20:46.678Z,52.50
2023-05-21T10:21:50.391Z,52.40
2023-05-21T10:22:59.947Z,52.40
2023-05-21T10:24:02.659Z,52.40
2023-05-21T10:25:06.030Z,52.40
2023-05-21T10:26:09.814Z,52.50
2023-05-21T10:27:16.701Z,52.50
2023-05-21T10:28:20.660Z,52.50
2023-05-21T10:29:23.510Z,52.50
2023-05-21T10:30:26.012Z,52.50
2023-05-21T10:31:32.465Z,53.10
2023-05-21T10:32:37.268Z,52.50
2023-05-21T10:33:43.711Z,52.50
2023-05-21T10:34:48.540Z,52.50
2023-05-21T10:35:53.140Z,52.50
2023-05-21T10:36:58.225Z,52.60
2023-05-21T10:38:04.697Z,52.60
2023-05-21T10:39:11.128Z,52.60
2023-05-21T10:40:13.863Z,52.60
2023-05-21T10:41:20.976Z,52.60
2023-05-21T10:42:23.930Z,52.50
2023-05-21T10:43:44.151Z,52.60
2023-05-21T10:44:57.642Z,52.60
2023-05-21T10:46:11.027Z,52.60
2023-05-21T10:47:16.183Z,52.60
2023-05-21T10:48:27.743Z,52.60
2023-05-21T10:49:49.856Z,52.50
2023-05-21T10:50:55.504Z,52.60
2023-05-21T10:52:17.545Z,52.60
2023-05-21T10:53:25.064Z,52.60
2023-05-21T10:54:46.300Z,52.60
2023-05-21T10:55:59.573Z,52.60
2023-05-21T10:57:13.965Z,52.60
2023-05-21T10:58:23.500Z,52.70
2023-05-21T10:59:41.770Z,52.60
2023-05-21T11:00:45.549Z,52.70
2023-05-21T11:01:53.456Z,52.70
2023-05-21T11:02:58.422Z,52.70
2023-05-21T11:04:01.570Z,52.60
2023-05-21T11:05:07.052Z,52.70
2023-05-21T11:06:09.856Z,52.70
2023-05-21T11:07:22.680Z,52.70
2023-05-21T11:08:27.374Z,52.60
2023-05-21T11:09:33.470Z,52.70
2023-05-21T11:10:40.769Z,52.70
2023-05-21T11:11:45.200Z,52.70
2023-05-21T11:13:10.712Z,52.70
2023-05-21T11:14:43.676Z,52.70
2023-05-21T11:16:13.765Z,52.60
2023-05-21T11:17:16.518Z,52.70
2023-05-21T11:18:31.396Z,52.70
2023-05-21T11:19:37.297Z,52.70
2023-05-21T11:20:39.752Z,52.60
2023-05-21T11:21:42.709Z,52.60
2023-05-21T11:22:49.408Z,52.70
2023-05-21T11:23:53.659Z,52.70
2023-05-21T11:24:56.498Z,52.60
2023-05-21T11:26:02.037Z,52.60
2023-05-21T11:27:10.224Z,52.70
2023-05-21T11:28:12.565Z,52.70
2023-05-21T11:29:15.579Z,52.60
2023-05-21T11:30:18.804Z,52.70
2023-05-21T11:31:48.697Z,52.70
2023-05-21T11:33:15.821Z,52.70
2023-05-21T11:34:32.679Z,52.70
2023-05-21T11:35:50.091Z,52.70
2023-05-21T11:37:14.252Z,52.70
2023-05-21T11:38:17.509Z,52.70
2023-05-21T11:39:22.762Z,52.70
2023-05-21T11:40:27.239Z,52.70
2023-05-21T11:41:49.732Z,52.70
2023-05-21T11:42:54.083Z,52.70
2023-05-21T11:44:02.320Z,52.80
2023-05-21T11:45:08.678Z,52.70
2023-05-21T11:46:12.305Z,52.70
2023-05-21T11:47:20.479Z,52.80
2023-05-21T11:48:28.010Z,52.70
2023-05-21T11:49:31.788Z,52.70
2023-05-21T11:50:37.812Z,52.70
2023-05-21T11:51:40.632Z,52.70
2023-05-21T11:52:50.287Z,52.80
2023-05-21T11:53:56.049Z,52.80
2023-05-21T11:54:59.825Z,52.70
2023-05-21T11:56:05.135Z,52.80
2023-05-21T11:57:08.057Z,52.80
2023-05-21T11:58:14.546Z,52.70
2023-05-21T11:59:18.837Z,52.70
2023-05-21T12:00:23.237Z,52.70
2023-05-21T12:01:27.728Z,52.70
2023-05-21T12:02:33.258Z,52.70
2023-05-21T12:03:35.784Z,52.80
2023-05-21T12:04:48.429Z,52.80
2023-05-21T12:06:05.463Z,52.70
2023-05-21T12:08:28.795Z,52.80
2023-05-21T12:09:43.399Z,52.80
2023-05-21T12:10:48.741Z,52.80
2023-05-21T12:11:56.503Z,52.70
2023-05-21T12:13:03.390Z,52.70
2023-05-21T12:14:09.816Z,52.80
2023-05-21T12:15:13.900Z,52.80
2023-05-21T12:16:21.973Z,52.70
2023-05-21T12:17:25.689Z,52.80
2023-05-21T12:18:31.433Z,52.80
2023-05-21T12:19:51.511Z,52.80
2023-05-21T12:21:02.905Z,52.80
2023-05-21T12:22:06.378Z,52.80
2023-05-21T12:23:25.110Z,52.80
2023-05-21T12:24:34.663Z,52.70
2023-05-21T12:25:37.123Z,52.70
2023-05-21T12:26:43.429Z,52.70
2023-05-21T12:27:51.752Z,52.80
2023-05-21T12:28:56.117Z,52.70
2023-05-21T12:29:59.861Z,52.80
2023-05-21T12:31:02.162Z,53.30
2023-05-21T12:32:08.944Z,52.80
2023-05-21T12:33:12.282Z,52.70
2023-05-21T12:34:21.220Z,52.70
2023-05-21T12:35:25.775Z,52.70
2023-05-21T12:36:31.687Z,52.80
2023-05-21T12:37:35.837Z,52.80
2023-05-21T12:38:38.249Z,52.80
2023-05-21T12:39:45.682Z,52.80
2023-05-21T12:40:48.057Z,52.70
2023-05-21T12:41:54.194Z,52.70
2023-05-21T12:43:00.186Z,52.80
2023-05-21T12:44:05.710Z,52.70
2023-05-21T12:45:08.855Z,52.70
2023-05-21T12:46:20.528Z,52.70
2023-05-21T12:47:23.994Z,52.80
2023-05-21T12:48:26.324Z,52.80
2023-05-21T12:49:35.157Z,52.80
2023-05-21T12:50:44.999Z,52.80
2023-05-21T12:51:52.608Z,52.80
2023-05-21T12:52:59.128Z,52.70
2023-05-21T12:54:03.720Z,52.80
2023-05-21T12:55:10.489Z,52.80
2023-05-21T12:56:14.786Z,52.80
2023-05-21T12:57:18.790Z,52.80
2023-05-21T12:58:23.714Z,52.80
2023-05-21T12:59:27.583Z,52.80
2023-05-21T13:00:33.352Z,52.80
2023-05-21T13:01:38.368Z,52.80
2023-05-21T13:02:41.643Z,52.80
2023-05-21T13:03:47.644Z,52.80
2023-05-21T13:04:54.444Z,52.80
2023-05-21T13:06:01.913Z,52.80
2023-05-21T13:07:05.653Z,52.80
2023-05-21T13:08:10.500Z,52.80
2023-05-21T13:09:15.057Z,52.80
2023-05-21T13:10:17.712Z,52.80
2023-05-21T13:11:24.007Z,52.80
2023-05-21T13:12:27.690Z,52.80
2023-05-21T13:13:30.169Z,52.80
2023-05-21T13:14:33.825Z,52.80
2023-05-21T13:15:39.957Z,52.80
2023-05-21T13:16:43.007Z,52.90
2023-05-21T13:17:50.126Z,52.90
2023-05-21T13:18:53.147Z,52.80
2023-05-21T13:20:07.549Z,52.80
2023-05-21T13:21:10.220Z,52.80
2023-05-21T13:22:12.623Z,52.80
2023-05-21T13:23:16.729Z,52.80
2023-05-21T13:24:25.140Z,52.80
2023-05-21T13:25:30.457Z,52.90
2023-05-21T13:26:34.023Z,52.80
2023-05-21T13:27:39.299Z,52.80
2023-05-21T13:28:42.937Z,52.90
2023-05-21T13:29:49.621Z,52.90
2023-05-21T13:30:55.085Z,52.90
2023-05-21T13:31:57.331Z,52.80
2023-05-21T13:32:59.738Z,52.80
2023-05-21T13:34:03.681Z,52.80
2023-05-21T13:35:09.975Z,52.80
2023-05-21T13:36:13.801Z,52.80
2023-05-21T13:37:16.791Z,52.90
2023-05-21T13:38:24.389Z,52.80
2023-05-21T13:39:32.557Z,52.70
2023-05-21T13:40:42.238Z,52.80
2023-05-21T13:41:44.734Z,52.80
2023-05-21T13:42:49.210Z,52.90
2023-05-21T13:43:53.703Z,52.90
2023-05-21T13:45:04.290Z,52.80
2023-05-21T13:46:09.570Z,52.90
2023-05-21T13:47:12.694Z,52.80
2023-05-21T13:48:36.032Z,52.90
2023-05-21T13:49:38.585Z,52.90
2023-05-21T13:50:41.722Z,52.90
2023-05-21T13:51:44.803Z,52.80
2023-05-21T13:52:48.259Z,52.90
2023-05-21T13:53:51.731Z,52.90
2023-05-21T13:54:55.863Z,52.90
2023-05-21T13:55:59.577Z,52.80
2023-05-21T13:57:04.360Z,52.90
2023-05-21T13:58:06.763Z,52.80
2023-05-21T13:59:09.716Z,52.80
2023-05-21T14:00:14.305Z,52.90
2023-05-21T14:01:16.838Z,52.80
2023-05-21T14:02:20.810Z,52.90
2023-05-21T14:03:24.377Z,52.90
2023-05-21T14:04:27.520Z,52.80
2023-05-21T14:05:31.714Z,52.80
2023-05-21T14:06:41.175Z,52.90
2023-05-21T14:07:43.833Z,52.90
2023-05-21T14:08:54.195Z,52.80
2023-05-21T14:10:02.939Z,52.90
2023-05-21T14:11:05.577Z,52.90